Time;durP1;ratioP1;P1;durP2;ratioP2;P2;SDS_P1;SDS_P2;PMS_P1;PMS_P2;Temp;Humidity;BMP_temperature;BMP_pressure;BME280_temperature;BME280_humidity;BME280_pressure;Samples;Min_cycle;Max_cycle;Signal;HPM_P1;HPM_P2
2022/04/10 00:00:56;;;;;;;0.10;0.10;;;;;;;;;;5135250;27;20053;-79
2022/04/10 00:03:22;;;;;;;0.10;0.10;;;;;;;;;;5116519;27;20023;-78
2022/04/10 00:05:49;;;;;;;0.10;0.10;;;;;;;;;;5135235;27;20034;-78
2022/04/10 00:08:15;;;;;;;0.10;0.10;;;;;;;;;;5135541;27;20019;-78
2022/04/10 00:10:41;;;;;;;0.10;0.10;;;;;;;;;;5131037;27;20031;-77
2022/04/10 00:13:07;;;;;;;0.10;0.10;;;;;;;;;;5112692;27;20027;-78
2022/04/10 00:15:34;;;;;;;0.10;0.10;;;;;;;;;;5134254;27;20095;-80
2022/04/10 00:18:00;;;;;;;0.17;0.17;;;;;;;;;;5131335;27;20023;-78
2022/04/10 00:20:26;;;;;;;0.10;0.10;;;;;;;;;;5116541;27;20038;-78
2022/04/10 00:22:52;;;;;;;0.10;0.10;;;;;;;;;;5116340;27;20011;-78
2022/04/10 00:25:20;;;;;;;0.10;0.10;;;;;;;;;;5116714;27;20030;-78
2022/04/10 00:27:46;;;;;;;0.10;0.10;;;;;;;;;;5135130;27;20015;-79
2022/04/10 00:30:13;;;;;;;0.10;0.10;;;;;;;;;;5111660;27;20031;-77
2022/04/10 00:32:39;;;;;;;0.17;0.17;;;;;;;;;;5113636;27;20102;-78
2022/04/10 00:35:06;;;;;;;0.10;0.10;;;;;;;;;;5134419;27;20080;-79
2022/04/10 00:37:32;;;;;;;0.10;0.10;;;;;;;;;;5133592;27;20068;-78
2022/04/10 00:39:58;;;;;;;0.10;0.10;;;;;;;;;;5132886;27;20160;-78
2022/04/10 00:42:30;;;;;;;0.10;0.10;;;;;;;;;;5133446;27;20605;-78
2022/04/10 00:44:56;;;;;;;0.10;0.10;;;;;;;;;;5133759;27;20106;-79
2022/04/10 00:47:22;;;;;;;0.20;0.20;;;;;;;;;;5109436;27;20434;-78
2022/04/10 00:49:48;;;;;;;0.10;0.10;;;;;;;;;;5124404;27;20034;-77
2022/04/10 00:52:15;;;;;;;0.20;0.20;;;;;;;;;;5116588;27;20540;-78
2022/04/10 00:54:41;;;;;;;0.10;0.10;;;;;;;;;;5094688;28;20487;-78
2022/04/10 00:57:07;;;;;;;0.10;0.10;;;;;;;;;;5113592;28;20028;-78
2022/04/10 00:59:33;;;;;;;0.10;0.10;;;;;;;;;;5113346;28;20024;-78
2022/04/10 01:01:59;;;;;;;0.10;0.10;;;;;;;;;;5113721;28;20028;-78
2022/04/10 01:04:25;;;;;;;0.10;0.10;;;;;;;;;;5111356;28;20109;-79
2022/04/10 01:06:52;;;;;;;0.10;0.10;;;;;;;;;;5112221;28;20035;-78
2022/04/10 01:09:20;;;;;;;0.10;0.10;;;;;;;;;;5113799;28;20015;-77
2022/04/10 01:11:46;;;;;;;0.10;0.10;;;;;;;;;;5095051;28;20384;-78
2022/04/10 01:14:13;;;;;;;0.10;0.10;;;;;;;;;;5112760;28;20031;-79
2022/04/10 01:16:41;;;;;;;0.10;0.10;;;;;;;;;;5094733;28;20555;-79
2022/04/10 01:19:07;;;;;;;0.10;0.10;;;;;;;;;;5113142;28;20797;-79
2022/04/10 01:21:36;;;;;;;0.10;0.10;;;;;;;;;;5112914;28;20027;-79
2022/04/10 01:24:02;;;;;;;0.20;0.20;;;;;;;;;;5113052;28;20423;-78
2022/04/10 01:26:28;;;;;;;0.10;0.10;;;;;;;;;;5112986;28;20057;-79
2022/04/10 01:29:00;;;;;;;0.85;0.85;;;;;;;;;;5113026;28;20380;-79
2022/04/10 01:31:27;;;;;;;0.10;0.10;;;;;;;;;;5094425;28;20031;-79
2022/04/10 01:33:55;;;;;;;0.10;0.10;;;;;;;;;;5112789;28;20035;-79
2022/04/10 01:36:23;;;;;;;0.10;0.10;;;;;;;;;;5094373;28;20042;-79
2022/04/10 01:38:49;;;;;;;0.10;0.10;;;;;;;;;;5112836;28;20047;-77
2022/04/10 01:41:15;;;;;;;0.10;0.10;;;;;;;;;;5112922;28;20023;-79
2022/04/10 01:43:48;;;;;;;0.10;0.10;;;;;;;;;;5112627;28;20030;-78
2022/04/10 01:46:15;;;;;;;0.10;0.10;;;;;;;;;;5113380;28;20479;-79
2022/04/10 01:48:41;;;;;;;0.10;0.10;;;;;;;;;;5112324;28;20555;-78
2022/04/10 01:51:08;;;;;;;0.10;0.10;;;;;;;;;;5112922;28;20405;-79
2022/04/10 01:53:34;;;;;;;0.10;0.10;;;;;;;;;;5112230;28;20077;-78
2022/04/10 01:56:00;;;;;;;0.10;0.10;;;;;;;;;;5094068;28;20510;-79
2022/04/10 01:58:26;;;;;;;0.10;0.10;;;;;;;;;;5093866;28;20115;-79
2022/04/10 02:00:53;;;;;;;0.10;0.10;;;;;;;;;;5112381;28;20098;-79
2022/04/10 02:03:19;;;;;;;0.10;0.10;;;;;;;;;;5112149;28;20028;-78
2022/04/10 02:05:45;;;;;;;0.10;0.10;;;;;;;;;;5112235;28;20020;-79
2022/04/10 02:08:12;;;;;;;0.10;0.10;;;;;;;;;;5112266;28;20028;-78
2022/04/10 02:10:38;;;;;;;0.10;0.10;;;;;;;;;;5112058;28;20626;-78
2022/04/10 02:13:04;;;;;;;0.10;0.10;;;;;;;;;;5093937;28;20074;-78
2022/04/10 02:15:30;;;;;;;0.10;0.10;;;;;;;;;;5111777;28;20038;-79
2022/04/10 02:17:56;;;;;;;0.10;0.10;;;;;;;;;;5112178;28;20487;-78
2022/04/10 02:20:22;;;;;;;0.10;0.10;;;;;;;;;;5093504;28;20051;-78
2022/04/10 02:22:48;;;;;;;0.10;0.10;;;;;;;;;;5093845;28;20066;-76
2022/04/10 02:25:14;;;;;;;0.10;0.10;;;;;;;;;;5094070;28;20471;-79
2022/04/10 02:27:40;;;;;;;0.10;0.10;;;;;;;;;;5111559;28;20020;-78
2022/04/10 02:30:06;;;;;;;0.10;0.10;;;;;;;;;;5093690;28;20027;-79
2022/04/10 02:32:32;;;;;;;0.10;0.10;;;;;;;;;;5111532;28;20468;-79
2022/04/10 02:34:58;;;;;;;0.10;0.10;;;;;;;;;;5093451;28;20398;-80
2022/04/10 02:37:24;;;;;;;0.10;0.10;;;;;;;;;;5111559;28;20110;-79
2022/04/10 02:39:50;;;;;;;0.10;0.10;;;;;;;;;;5111758;28;20020;-79
2022/04/10 02:42:16;;;;;;;0.10;0.10;;;;;;;;;;5112153;28;20364;-79
2022/04/10 02:44:42;;;;;;;0.10;0.10;;;;;;;;;;5111635;28;20019;-78
2022/04/10 02:47:08;;;;;;;0.20;0.20;;;;;;;;;;5111831;28;20494;-79
2022/04/10 02:49:34;;;;;;;0.10;0.10;;;;;;;;;;5112115;28;20108;-79
2022/04/10 02:52:00;;;;;;;0.10;0.10;;;;;;;;;;5112193;28;20483;-79
2022/04/10 02:54:26;;;;;;;0.10;0.10;;;;;;;;;;5111186;28;20027;-77
2022/04/10 02:56:52;;;;;;;0.10;0.10;;;;;;;;;;5093436;28;20027;-79
2022/04/10 02:59:18;;;;;;;0.10;0.10;;;;;;;;;;5111237;28;20099;-76
2022/04/10 03:01:44;;;;;;;0.55;0.55;;;;;;;;;;5111633;28;20483;-78
2022/04/10 03:04:10;;;;;;;0.10;0.10;;;;;;;;;;5111168;28;20103;-78
2022/04/10 03:06:36;;;;;;;0.10;0.10;;;;;;;;;;5111137;28;20031;-78
2022/04/10 03:09:02;;;;;;;0.10;0.10;;;;;;;;;;5093243;28;20020;-78
2022/04/10 03:11:28;;;;;;;0.10;0.10;;;;;;;;;;5111148;28;20024;-78
2022/04/10 03:13:54;;;;;;;0.10;0.10;;;;;;;;;;5093025;28;20035;-78
2022/04/10 03:16:20;;;;;;;0.13;0.13;;;;;;;;;;5111010;28;20524;-78
2022/04/10 03:18:46;;;;;;;0.10;0.10;;;;;;;;;;5114953;28;20364;-78
2022/04/10 03:21:12;;;;;;;0.10;0.10;;;;;;;;;;5115381;28;20106;-78
2022/04/10 03:23:39;;;;;;;0.10;0.10;;;;;;;;;;5115109;28;20434;-78
2022/04/10 03:26:04;;;;;;;0.10;0.10;;;;;;;;;;5115341;28;20103;-78
2022/04/10 03:28:30;;;;;;;0.10;0.10;;;;;;;;;;5115416;28;20462;-78
2022/04/10 03:30:59;;;;;;;0.10;0.10;;;;;;;;;;5115434;28;20030;-78
2022/04/10 03:33:25;;;;;;;0.10;0.10;;;;;;;;;;5115028;28;20023;-78
2022/04/10 03:35:52;;;;;;;0.20;0.20;;;;;;;;;;5096802;28;20517;-78
2022/04/10 03:38:18;;;;;;;0.10;0.10;;;;;;;;;;5097367;28;20031;-76
2022/04/10 03:40:44;;;;;;;0.10;0.10;;;;;;;;;;5115395;28;20031;-78
2022/04/10 03:43:11;;;;;;;0.20;0.20;;;;;;;;;;5096705;28;20031;-79
2022/04/10 03:45:41;;;;;;;0.10;0.10;;;;;;;;;;5096551;28;20076;-79
2022/04/10 03:48:08;;;;;;;0.10;0.10;;;;;;;;;;5114872;28;20481;-79
2022/04/10 03:50:34;;;;;;;0.10;0.10;;;;;;;;;;5114784;28;20031;-77
2022/04/10 03:53:03;;;;;;;0.10;0.10;;;;;;;;;;5114908;28;20030;-79
2022/04/10 03:55:29;;;;;;;0.10;0.10;;;;;;;;;;5114576;28;20097;-79
2022/04/10 03:57:56;;;;;;;0.10;0.10;;;;;;;;;;5096473;28;20111;-79
2022/04/10 04:00:21;;;;;;;0.10;0.10;;;;;;;;;;5114552;28;20107;-79
2022/04/10 04:02:48;;;;;;;0.13;0.13;;;;;;;;;;5114839;28;20437;-78
2022/04/10 04:05:14;;;;;;;0.10;0.10;;;;;;;;;;5096663;28;20436;-79
2022/04/10 04:07:40;;;;;;;0.10;0.10;;;;;;;;;;5114252;28;20089;-78
2022/04/10 04:10:07;;;;;;;0.10;0.10;;;;;;;;;;5114650;28;20541;-78
2022/04/10 04:12:36;;;;;;;0.10;0.10;;;;;;;;;;5114298;28;20547;-76
2022/04/10 04:15:02;;;;;;;0.10;0.10;;;;;;;;;;5114462;28;20028;-78
2022/04/10 04:17:29;;;;;;;0.20;0.20;;;;;;;;;;5113946;28;20114;-76
2022/04/10 04:19:55;;;;;;;0.10;0.10;;;;;;;;;;5114587;28;20368;-76
2022/04/10 04:22:21;;;;;;;0.10;0.10;;;;;;;;;;5114303;28;20023;-76
2022/04/10 04:24:47;;;;;;;0.10;0.10;;;;;;;;;;5114643;28;20031;-76
2022/04/10 04:27:13;;;;;;;0.17;0.17;;;;;;;;;;5096343;28;20023;-76
2022/04/10 04:29:40;;;;;;;0.10;0.10;;;;;;;;;;5113307;28;20050;-76
2022/04/10 04:32:06;;;;;;;0.10;0.10;;;;;;;;;;5114180;28;20016;-76
2022/04/10 04:34:32;;;;;;;0.10;0.10;;;;;;;;;;5113852;28;20036;-77
2022/04/10 04:36:58;;;;;;;0.10;0.10;;;;;;;;;;5114095;28;20016;-76
2022/04/10 04:39:24;;;;;;;0.20;0.20;;;;;;;;;;5095361;28;20384;-76
2022/04/10 04:41:50;;;;;;;0.10;0.10;;;;;;;;;;5113937;28;20024;-76
2022/04/10 04:44:17;;;;;;;0.55;0.55;;;;;;;;;;5114195;28;20034;-76
2022/04/10 04:46:43;;;;;;;0.10;0.10;;;;;;;;;;5113733;28;20031;-75
2022/04/10 04:49:09;;;;;;;18.52;13.55;;;;;;;;;;5113732;28;20430;-76
2022/04/10 04:51:36;;;;;;;0.10;0.10;;;;;;;;;;5113652;28;20016;-76
2022/04/10 04:54:08;;;;;;;0.10;0.10;;;;;;;;;;5113709;28;20020;-77
2022/04/10 04:56:34;;;;;;;0.10;0.10;;;;;;;;;;5113521;28;20429;-76
2022/04/10 04:59:00;;;;;;;0.10;0.10;;;;;;;;;;5113645;28;20019;-76
2022/04/10 05:01:26;;;;;;;0.10;0.10;;;;;;;;;;5113372;28;20027;-78
2022/04/10 05:03:52;;;;;;;0.10;0.10;;;;;;;;;;5113617;28;20020;-77
2022/04/10 05:06:18;;;;;;;0.10;0.10;;;;;;;;;;5113240;28;20034;-75
2022/04/10 05:08:48;;;;;;;0.10;0.10;;;;;;;;;;5113741;28;20041;-79
2022/04/10 05:11:14;;;;;;;0.10;0.10;;;;;;;;;;5113949;28;20102;-77
2022/04/10 05:13:41;;;;;;;0.10;0.10;;;;;;;;;;5113015;28;20032;-76
2022/04/10 05:16:07;;;;;;;0.10;0.10;;;;;;;;;;5113220;28;20035;-77
2022/04/10 05:18:33;;;;;;;0.10;0.10;;;;;;;;;;5094681;28;20020;-78
2022/04/10 05:20:59;;;;;;;0.10;0.10;;;;;;;;;;5113219;28;20483;-78
2022/04/10 05:23:25;;;;;;;0.10;0.10;;;;;;;;;;5112831;28;20030;-76
2022/04/10 05:25:51;;;;;;;0.10;0.10;;;;;;;;;;5113149;28;20019;-77
2022/04/10 05:28:18;;;;;;;0.10;0.10;;;;;;;;;;5113329;28;20043;-76
2022/04/10 05:30:47;;;;;;;0.10;0.10;;;;;;;;;;5113474;28;20020;-77
2022/04/10 05:33:13;;;;;;;0.10;0.10;;;;;;;;;;5113272;28;20444;-77
2022/04/10 05:35:39;;;;;;;0.10;0.10;;;;;;;;;;5094371;28;20039;-76
2022/04/10 05:38:05;;;;;;;0.10;0.10;;;;;;;;;;5112923;28;20023;-78
2022/04/10 05:40:32;;;;;;;0.10;0.10;;;;;;;;;;5112036;28;20030;-78
2022/04/10 05:42:58;;;;;;;0.10;0.10;;;;;;;;;;5112400;28;20024;-78
2022/04/10 05:45:24;;;;;;;0.10;0.10;;;;;;;;;;5115051;27;20039;-79
2022/04/10 05:47:50;;;;;;;0.10;0.10;;;;;;;;;;5114374;27;20375;-78
2022/04/10 05:50:16;;;;;;;0.10;0.10;;;;;;;;;;5133280;27;20031;-78
2022/04/10 05:52:43;;;;;;;0.10;0.10;;;;;;;;;;5132919;27;20055;-77
2022/04/10 05:55:10;;;;;;;0.10;0.10;;;;;;;;;;5133135;27;20517;-78
2022/04/10 05:57:37;;;;;;;0.10;0.10;;;;;;;;;;5114441;27;20031;-78
2022/04/10 06:00:08;;;;;;;0.10;0.10;;;;;;;;;;5133036;27;20528;-78
2022/04/10 06:02:34;;;;;;;0.10;0.10;;;;;;;;;;5114232;27;20105;-77
2022/04/10 06:05:00;;;;;;;0.10;0.10;;;;;;;;;;5114667;27;20052;-79
2022/04/10 06:07:26;;;;;;;0.10;0.10;;;;;;;;;;5114117;27;20135;-78
2022/04/10 06:09:52;;;;;;;0.10;0.10;;;;;;;;;;5132849;27;20064;-79
2022/04/10 06:12:18;;;;;;;0.10;0.10;;;;;;;;;;5114270;27;20027;-76
2022/04/10 06:14:44;;;;;;;0.10;0.10;;;;;;;;;;5114590;27;20057;-79
2022/04/10 06:17:10;;;;;;;0.15;0.15;;;;;;;;;;5132402;27;20064;-78
2022/04/10 06:19:36;;;;;;;0.10;0.10;;;;;;;;;;5114128;27;20026;-77
2022/04/10 06:22:02;;;;;;;0.20;0.20;;;;;;;;;;5114400;27;20061;-78
2022/04/10 06:24:28;;;;;;;0.10;0.10;;;;;;;;;;5132271;27;20102;-80
2022/04/10 06:26:54;;;;;;;0.10;0.10;;;;;;;;;;5132643;27;20027;-80
2022/04/10 06:29:21;;;;;;;0.10;0.10;;;;;;;;;;5132133;27;20063;-78
2022/04/10 06:31:47;;;;;;;0.10;0.10;;;;;;;;;;5132305;27;20023;-79
2022/04/10 06:34:13;;;;;;;8.30;3.42;;;;;;;;;;5132620;27;20023;-79
2022/04/10 06:36:40;;;;;;;0.10;0.10;;;;;;;;;;5113481;27;20034;-80
2022/04/10 06:39:06;;;;;;;0.20;0.20;;;;;;;;;;5132321;27;20023;-78
2022/04/10 06:41:32;;;;;;;0.10;0.10;;;;;;;;;;5132023;27;20098;-78
2022/04/10 06:43:58;;;;;;;0.10;0.10;;;;;;;;;;5113776;27;20029;-79
2022/04/10 06:46:26;;;;;;;0.10;0.10;;;;;;;;;;5113572;27;20020;-79
2022/04/10 06:48:52;;;;;;;0.10;0.10;;;;;;;;;;5131629;27;20402;-78
2022/04/10 06:51:19;;;;;;;0.10;0.10;;;;;;;;;;5119692;27;20027;-77
2022/04/10 06:53:45;;;;;;;0.20;0.20;;;;;;;;;;5093051;28;20502;-78
2022/04/10 06:56:11;;;;;;;0.10;0.10;;;;;;;;;;5129908;27;20039;-76
2022/04/10 06:58:37;;;;;;;0.10;0.10;;;;;;;;;;5130083;27;20390;-79
2022/04/10 07:01:03;;;;;;;0.10;0.10;;;;;;;;;;5126566;28;20035;-79
2022/04/10 07:03:30;;;;;;;0.10;0.10;;;;;;;;;;5130980;28;20027;-79
2022/04/10 07:05:56;;;;;;;0.15;0.15;;;;;;;;;;5110432;28;20026;-77
2022/04/10 07:08:22;;;;;;;0.10;0.10;;;;;;;;;;5112404;28;20030;-78
2022/04/10 07:10:48;;;;;;;0.10;0.10;;;;;;;;;;5131887;28;20474;-79
2022/04/10 07:13:17;;;;;;;0.10;0.10;;;;;;;;;;5111812;28;20035;-78
2022/04/10 07:15:44;;;;;;;0.10;0.10;;;;;;;;;;5117110;28;20031;-77
2022/04/10 07:18:10;;;;;;;0.10;0.10;;;;;;;;;;5131538;27;20025;-78
2022/04/10 07:20:36;;;;;;;0.10;0.10;;;;;;;;;;5131153;27;20020;-78
2022/04/10 07:25:46;;;;;;;0.10;0.10;;;;;;;;;;5132012;28;20033;-78
2022/04/10 07:28:12;;;;;;;0.10;0.10;;;;;;;;;;5131524;27;20114;-78
2022/04/10 07:30:39;;;;;;;0.10;0.10;;;;;;;;;;5130886;27;20110;-77
2022/04/10 07:33:05;;;;;;;0.10;0.10;;;;;;;;;;5112379;28;20027;-77
2022/04/10 07:35:31;;;;;;;0.10;0.10;;;;;;;;;;5130055;28;20046;-78
2022/04/10 07:37:57;;;;;;;0.10;0.10;;;;;;;;;;5131528;28;20106;-78
2022/04/10 07:40:23;;;;;;;0.10;0.10;;;;;;;;;;5113615;28;20452;-78
2022/04/10 07:42:49;;;;;;;0.10;0.10;;;;;;;;;;5131439;28;20050;-77
2022/04/10 07:48:00;;;;;;;0.10;0.10;;;;;;;;;;5117878;27;20033;-78
2022/04/10 07:50:26;;;;;;;0.10;0.10;;;;;;;;;;5131457;27;20035;-78
2022/04/10 07:52:53;;;;;;;0.10;0.10;;;;;;;;;;5131088;28;20027;-78
2022/04/10 07:55:19;;;;;;;0.10;0.10;;;;;;;;;;5131063;27;20039;-77
2022/04/10 07:57:45;;;;;;;0.20;0.20;;;;;;;;;;5113366;28;20047;-77
2022/04/10 08:00:11;;;;;;;2.40;2.30;;;;;;;;;;5130845;27;20104;-78
2022/04/10 08:02:38;;;;;;;0.10;0.10;;;;;;;;;;5130937;27;20019;-77
2022/04/10 08:05:05;;;;;;;0.20;0.20;;;;;;;;;;5131534;27;20051;-76
2022/04/10 08:07:31;;;;;;;0.10;0.10;;;;;;;;;;5134430;27;20019;-77
2022/04/10 08:09:57;;;;;;;0.30;0.30;;;;;;;;;;5104097;28;20031;-77
2022/04/10 08:12:23;;;;;;;0.10;0.10;;;;;;;;;;5095784;28;20027;-77
2022/04/10 08:14:49;;;;;;;0.30;0.30;;;;;;;;;;5133214;27;20031;-76
2022/04/10 08:17:15;;;;;;;0.10;0.10;;;;;;;;;;5134671;27;20034;-76
2022/04/10 08:19:41;;;;;;;0.13;0.13;;;;;;;;;;5134240;27;20037;-75
2022/04/10 08:22:07;;;;;;;0.17;0.17;;;;;;;;;;5115981;27;20030;-75
2022/04/10 08:24:33;;;;;;;0.10;0.10;;;;;;;;;;5134003;27;20554;-75
2022/04/10 08:26:59;;;;;;;0.10;0.10;;;;;;;;;;5134156;27;20023;-75
2022/04/10 08:29:26;;;;;;;0.10;0.10;;;;;;;;;;5133629;27;20111;-76
2022/04/10 08:31:52;;;;;;;0.10;0.10;;;;;;;;;;5113925;28;20015;-76
2022/04/10 08:34:18;;;;;;;0.10;0.10;;;;;;;;;;5129988;27;20100;-76
2022/04/10 08:36:44;;;;;;;0.10;0.10;;;;;;;;;;5135026;27;20031;-76
2022/04/10 08:39:10;;;;;;;0.10;0.10;;;;;;;;;;5134293;27;20068;-78
2022/04/10 08:41:37;;;;;;;0.10;0.10;;;;;;;;;;5133063;27;20102;-77
2022/04/10 08:44:04;;;;;;;0.10;0.10;;;;;;;;;;5128655;27;20028;-76
2022/04/10 08:46:31;;;;;;;0.10;0.10;;;;;;;;;;5113736;28;20019;-76
2022/04/10 08:48:58;;;;;;;0.10;0.10;;;;;;;;;;5126116;27;20083;-75
2022/04/10 08:51:25;;;;;;;0.10;0.10;;;;;;;;;;5127390;27;20040;-76
2022/04/10 08:53:53;;;;;;;0.10;0.10;;;;;;;;;;5133386;27;20019;-76
2022/04/10 08:56:19;;;;;;;0.10;0.10;;;;;;;;;;5133474;27;20043;-75
2022/04/10 08:58:45;;;;;;;0.10;0.10;;;;;;;;;;5133567;27;20395;-76
2022/04/10 09:01:14;;;;;;;0.10;0.10;;;;;;;;;;5134181;27;20023;-76
2022/04/10 09:03:40;;;;;;;0.10;0.10;;;;;;;;;;5133978;27;20094;-77
2022/04/10 09:06:07;;;;;;;0.10;0.10;;;;;;;;;;5134177;27;20548;-76
2022/04/10 09:08:33;;;;;;;0.10;0.10;;;;;;;;;;5133954;27;20068;-76
2022/04/10 09:11:04;;;;;;;0.10;0.10;;;;;;;;;;5133933;27;20101;-76
2022/04/10 09:13:30;;;;;;;0.10;0.10;;;;;;;;;;5129911;27;20513;-76
2022/04/10 09:16:16;;;;;;;0.10;0.10;;;;;;;;;;5133167;27;20057;-76
2022/04/10 09:18:47;;;;;;;0.30;0.30;;;;;;;;;;5115183;27;20486;-76
2022/04/10 09:21:14;;;;;;;0.10;0.10;;;;;;;;;;5134161;27;20027;-75
2022/04/10 09:23:40;;;;;;;0.10;0.10;;;;;;;;;;5125941;27;20015;-75
2022/04/10 09:26:06;;;;;;;0.20;0.20;;;;;;;;;;5121299;27;20023;-75
2022/04/10 09:28:42;;;;;;;0.10;0.10;;;;;;;;;;5121631;27;20485;-74
2022/04/10 09:31:29;;;;;;;0.10;0.10;;;;;;;;;;5127188;27;20102;-75
2022/04/10 09:33:55;;;;;;;0.10;0.10;;;;;;;;;;5112850;28;20073;-75
2022/04/10 09:36:30;;;;;;;0.10;0.10;;;;;;;;;;5107639;27;20031;-74
2022/04/10 09:38:59;;;;;;;0.10;0.10;;;;;;;;;;5132230;27;20019;-75
2022/04/10 09:41:25;;;;;;;0.10;0.10;;;;;;;;;;5130861;27;20050;-75
2022/04/10 09:43:51;;;;;;;0.10;0.10;;;;;;;;;;5133294;27;20023;-76
2022/04/10 09:46:18;;;;;;;0.10;0.10;;;;;;;;;;5124683;27;20077;-75
2022/04/10 09:48:44;;;;;;;0.10;0.10;;;;;;;;;;5129129;27;20577;-75
2022/04/10 09:51:11;;;;;;;0.10;0.10;;;;;;;;;;5133151;27;20027;-75
2022/04/10 09:53:37;;;;;;;0.15;0.15;;;;;;;;;;5132853;27;20023;-76
2022/04/10 09:56:04;;;;;;;0.10;0.10;;;;;;;;;;5132846;27;20118;-76
2022/04/10 09:58:31;;;;;;;0.10;0.10;;;;;;;;;;5132655;27;20368;-76
2022/04/10 10:00:58;;;;;;;0.20;0.20;;;;;;;;;;5133044;27;20418;-76
2022/04/10 10:03:24;;;;;;;0.20;0.20;;;;;;;;;;5132646;27;20106;-76
2022/04/10 10:05:51;;;;;;;0.10;0.10;;;;;;;;;;5114422;27;20508;-76
2022/04/10 10:08:17;;;;;;;0.10;0.10;;;;;;;;;;5133164;27;20046;-76
2022/04/10 10:10:44;;;;;;;0.10;0.10;;;;;;;;;;5133158;27;20061;-76
2022/04/10 10:13:12;;;;;;;0.10;0.10;;;;;;;;;;5132778;27;20408;-76
2022/04/10 10:15:38;;;;;;;0.10;0.10;;;;;;;;;;5132405;27;20045;-76
2022/04/10 10:18:05;;;;;;;0.10;0.10;;;;;;;;;;5132634;27;20023;-75
2022/04/10 10:20:32;;;;;;;0.10;0.10;;;;;;;;;;5132436;27;20027;-76
2022/04/10 10:23:00;;;;;;;0.10;0.10;;;;;;;;;;5114232;27;20110;-75
2022/04/10 10:25:45;;;;;;;0.10;0.10;;;;;;;;;;5132341;27;20470;-76
2022/04/10 10:28:30;;;;;;;5.15;4.78;;;;;;;;;;5113316;27;20030;-75
2022/04/10 10:31:01;;;;;;;0.10;0.10;;;;;;;;;;5132568;27;20044;-76
2022/04/10 10:33:28;;;;;;;0.10;0.10;;;;;;;;;;5132165;27;20143;-76
2022/04/10 10:36:01;;;;;;;0.10;0.10;;;;;;;;;;5113873;27;20046;-74
2022/04/10 10:38:27;;;;;;;0.10;0.10;;;;;;;;;;5113763;27;20094;-75
2022/04/10 10:40:54;;;;;;;0.17;0.17;;;;;;;;;;5132546;27;20031;-77
2022/04/10 10:43:20;;;;;;;0.10;0.10;;;;;;;;;;5114236;27;20023;-77
2022/04/10 10:45:49;;;;;;;0.20;0.20;;;;;;;;;;5132785;27;20030;-77
2022/04/10 10:48:33;;;;;;;0.10;0.10;;;;;;;;;;5113892;28;20034;-76
2022/04/10 10:51:03;;;;;;;0.10;0.10;;;;;;;;;;5126173;27;20050;-76
2022/04/10 10:53:43;;;;;;;0.10;0.10;;;;;;;;;;5111508;28;20080;-77
2022/04/10 10:56:15;;;;;;;0.20;0.20;;;;;;;;;;5111664;28;20387;-78
2022/04/10 10:58:42;;;;;;;0.10;0.10;;;;;;;;;;5111352;28;20080;-77
2022/04/10 11:01:09;;;;;;;0.10;0.10;;;;;;;;;;5127324;27;20057;-76
2022/04/10 11:04:01;;;;;;;0.10;0.10;;;;;;;;;;5112611;28;20036;-76
2022/04/10 11:06:31;;;;;;;0.10;0.10;;;;;;;;;;5091702;28;20039;-76
2022/04/10 11:09:16;;;;;;;0.10;0.10;;;;;;;;;;5125484;28;20100;-76
2022/04/10 11:11:42;;;;;;;0.10;0.10;;;;;;;;;;5092805;28;20084;-76
2022/04/10 11:14:28;;;;;;;0.10;0.10;;;;;;;;;;5115228;28;20031;-76
2022/04/10 11:16:54;;;;;;;0.10;0.10;;;;;;;;;;5103048;28;20035;-76
2022/04/10 11:19:23;;;;;;;0.10;0.10;;;;;;;;;;5126103;28;20083;-78
2022/04/10 11:21:49;;;;;;;0.10;0.10;;;;;;;;;;5131284;28;20065;-76
2022/04/10 11:24:22;;;;;;;0.17;0.17;;;;;;;;;;5131645;27;20034;-78
2022/04/10 11:26:48;;;;;;;0.10;0.10;;;;;;;;;;5131389;27;20047;-77
2022/04/10 11:29:15;;;;;;;0.10;0.10;;;;;;;;;;5112021;28;20036;-78
2022/04/10 11:31:44;;;;;;;0.10;0.10;;;;;;;;;;5133137;27;20020;-78
2022/04/10 11:34:20;;;;;;;0.40;0.40;;;;;;;;;;5113487;28;20023;-79
2022/04/10 11:36:52;;;;;;;0.10;0.10;;;;;;;;;;5119851;28;20035;-79
2022/04/10 11:39:22;;;;;;;0.65;0.65;;;;;;;;;;5130199;27;20031;-74
2022/04/10 11:41:50;;;;;;;2.30;2.20;;;;;;;;;;5134056;27;20043;-74
2022/04/10 11:44:16;;;;;;;0.10;0.10;;;;;;;;;;5128633;27;20023;-75
2022/04/10 11:46:44;;;;;;;0.10;0.10;;;;;;;;;;5096703;28;20038;-77
2022/04/10 11:49:10;;;;;;;0.20;0.20;;;;;;;;;;5122303;27;20031;-75
2022/04/10 11:52:07;;;;;;;0.10;0.10;;;;;;;;;;5134835;27;20031;-76
2022/04/10 11:54:35;;;;;;;;;;;;;;;;;;5127725;27;20035;-77
2022/04/10 11:57:02;;;;;;;0.10;0.10;;;;;;;;;;5135914;27;19907;-77
2022/04/10 11:59:34;;;;;;;0.20;0.20;;;;;;;;;;5135447;27;20031;-76
2022/04/10 12:02:00;;;;;;;0.10;0.10;;;;;;;;;;5117277;27;20023;-76
2022/04/10 12:04:26;;;;;;;0.10;0.10;;;;;;;;;;5134104;27;20019;-76
2022/04/10 12:06:52;;;;;;;0.13;0.13;;;;;;;;;;5135554;27;20050;-77
2022/04/10 12:09:18;;;;;;;0.10;0.10;;;;;;;;;;5116819;27;20023;-73
2022/04/10 12:11:44;;;;;;;0.20;0.20;;;;;;;;;;5135281;27;20398;-75
2022/04/10 12:14:16;;;;;;;10.00;3.83;;;;;;;;;;5134982;27;20027;-75
2022/04/10 12:16:43;;;;;;;0.10;0.10;;;;;;;;;;5133516;27;20050;-75
2022/04/10 12:19:09;;;;;;;0.10;0.10;;;;;;;;;;5114498;27;20019;-72
2022/04/10 12:21:39;;;;;;;0.20;0.20;;;;;;;;;;5134406;27;20034;-76
2022/04/10 12:24:05;;;;;;;0.10;0.10;;;;;;;;;;5134216;27;20124;-73
2022/04/10 12:26:36;;;;;;;0.10;0.10;;;;;;;;;;5134188;27;20036;-74
2022/04/10 12:29:04;;;;;;;0.10;0.10;;;;;;;;;;5115722;27;20023;-74
2022/04/10 12:31:30;;;;;;;0.10;0.10;;;;;;;;;;5134640;27;20486;-73
2022/04/10 12:33:56;;;;;;;0.10;0.10;;;;;;;;;;5134701;27;20106;-73
2022/04/10 12:36:26;;;;;;;0.10;0.10;;;;;;;;;;5115848;27;20042;-74
2022/04/10 12:38:53;;;;;;;0.10;0.10;;;;;;;;;;5134526;27;20019;-74
2022/04/10 12:41:29;;;;;;;0.10;0.10;;;;;;;;;;5133408;27;20027;-73
2022/04/10 12:44:08;;;;;;;0.10;0.10;;;;;;;;;;5115914;27;20019;-74
2022/04/10 12:46:35;;;;;;;0.10;0.10;;;;;;;;;;5133505;27;20021;-74
2022/04/10 12:49:14;;;;;;;0.10;0.10;;;;;;;;;;5133924;27;20078;-73
2022/04/10 12:52:05;;;;;;;0.10;0.10;;;;;;;;;;5132674;27;20038;-72
2022/04/10 12:54:35;;;;;;;0.10;0.10;;;;;;;;;;5113563;28;20059;-73
2022/04/10 12:57:01;;;;;;;0.10;0.10;;;;;;;;;;5113727;28;20051;-73
2022/04/10 12:59:34;;;;;;;0.10;0.10;;;;;;;;;;5095196;28;20089;-71
2022/04/10 13:02:00;;;;;;;0.20;0.20;;;;;;;;;;5113549;28;20020;-72
2022/04/10 13:04:28;;;;;;;0.10;0.10;;;;;;;;;;5094978;28;20390;-74
2022/04/10 13:06:54;;;;;;;0.10;0.10;;;;;;;;;;5126603;27;20027;-75
2022/04/10 13:09:20;;;;;;;0.10;0.10;;;;;;;;;;5133853;27;20019;-75
2022/04/10 13:11:46;;;;;;;0.10;0.10;;;;;;;;;;5133900;27;20015;-74
2022/04/10 13:14:16;;;;;;;0.10;0.10;;;;;;;;;;5114516;27;20063;-75
2022/04/10 13:16:43;;;;;;;0.10;0.10;;;;;;;;;;5118561;27;20046;-76
2022/04/10 13:19:11;;;;;;;0.10;0.10;;;;;;;;;;5134629;27;20095;-74
2022/04/10 13:21:37;;;;;;;0.10;0.10;;;;;;;;;;5133635;27;20046;-74
2022/04/10 13:24:04;;;;;;;0.10;0.10;;;;;;;;;;5122590;27;20097;-75
2022/04/10 13:26:32;;;;;;;0.10;0.10;;;;;;;;;;5123633;27;20028;-75
2022/04/10 13:29:01;;;;;;;0.10;0.10;;;;;;;;;;5123065;27;20019;-76
2022/04/10 13:31:27;;;;;;;0.10;0.10;;;;;;;;;;5122895;27;20038;-74
2022/04/10 13:33:53;;;;;;;0.10;0.10;;;;;;;;;;5109329;27;20027;-73
2022/04/10 13:36:19;;;;;;;0.10;0.10;;;;;;;;;;5123479;27;20039;-76
2022/04/10 13:38:45;;;;;;;0.10;0.10;;;;;;;;;;5124017;27;20498;-77
2022/04/10 13:41:11;;;;;;;0.10;0.10;;;;;;;;;;5125903;27;20107;-76
2022/04/10 13:43:38;;;;;;;0.10;0.10;;;;;;;;;;5121005;27;20023;-79
2022/04/10 13:46:04;;;;;;;0.10;0.10;;;;;;;;;;5107757;27;20057;-75
2022/04/10 13:48:30;;;;;;;0.10;0.10;;;;;;;;;;5112433;27;20080;-77
2022/04/10 13:50:56;;;;;;;0.00;0.00;;;;;;;;;;5120232;27;20027;-75
2022/04/10 13:53:22;;;;;;;0.10;0.10;;;;;;;;;;5132642;27;20027;-76
2022/04/10 13:55:48;;;;;;;0.10;0.10;;;;;;;;;;5126776;27;20494;-75
2022/04/10 13:58:15;;;;;;;0.10;0.10;;;;;;;;;;5123579;27;20043;-75
2022/04/10 14:00:41;;;;;;;0.15;0.15;;;;;;;;;;5122595;27;20380;-75
2022/04/10 14:03:07;;;;;;;0.10;0.10;;;;;;;;;;5123755;27;20031;-77
2022/04/10 14:05:33;;;;;;;0.10;0.10;;;;;;;;;;5115138;27;20525;-77
2022/04/10 14:08:00;;;;;;;0.10;0.10;;;;;;;;;;5132178;27;20019;-75
2022/04/10 14:10:26;;;;;;;0.10;0.10;;;;;;;;;;5112620;27;20058;-76
2022/04/10 14:12:52;;;;;;;0.10;0.10;;;;;;;;;;5131364;27;20027;-75
2022/04/10 14:15:18;;;;;;;0.10;0.10;;;;;;;;;;5132439;27;20110;-77
2022/04/10 14:17:44;;;;;;;0.10;0.10;;;;;;;;;;5133028;27;20019;-76
2022/04/10 14:20:10;;;;;;;0.20;0.20;;;;;;;;;;5132419;27;20034;-76
2022/04/10 14:22:36;;;;;;;0.10;0.10;;;;;;;;;;5132295;27;20019;-73
2022/04/10 14:25:02;;;;;;;0.10;0.10;;;;;;;;;;5114087;27;20443;-76
2022/04/10 14:27:28;;;;;;;0.10;0.10;;;;;;;;;;5132370;27;20020;-76
2022/04/10 14:29:54;;;;;;;0.10;0.10;;;;;;;;;;5132440;27;20487;-76
2022/04/10 14:32:21;;;;;;;0.10;0.10;;;;;;;;;;5112020;28;20019;-76
2022/04/10 14:34:47;;;;;;;0.10;0.10;;;;;;;;;;5132817;27;20019;-76
2022/04/10 14:37:15;;;;;;;0.10;0.10;;;;;;;;;;5115145;27;20035;-76
2022/04/10 14:39:42;;;;;;;0.10;0.10;;;;;;;;;;5132971;27;20025;-76
2022/04/10 14:42:08;;;;;;;0.10;0.10;;;;;;;;;;5132743;27;20418;-75
2022/04/10 14:44:34;;;;;;;0.10;0.10;;;;;;;;;;5132475;27;20593;-75
2022/04/10 14:47:01;;;;;;;0.10;0.10;;;;;;;;;;5132899;27;20049;-75
2022/04/10 14:49:27;;;;;;;0.10;0.10;;;;;;;;;;5132454;27;20055;-75